Laketon, Indiana
Current Conditions -  °F | °C
As of 9:55 PM on Wednesday 26 Nov 2014 (Local Time) from KRCR Reporting Station
Overcast Overcast  
Wind Chill: -4°   Ceiling: 2200
Heat Index: -1°   Visibility: 10mi
Dew Point: -5°   Wind: 5mph
Humidity: 75%   Direction: 30°NNE
Pressure: 30.12"   Gusts: NA
Location:  40.97°N, 85.84°W
Report Text: KRCR 270255Z AUTO 03004KT 10SM OVC022 M01/M05 A3012 RMK AO2
Loading
Personal Weather Stations






























Interactive Weather Map New forecast layout! Learn more

10-Day Weather Forecast

Advertisements
Track Severe Weather on mobile